Time;durP1;ratioP1;P1;durP2;ratioP2;P2;SDS_P1;SDS_P2;PMS_P1;PMS_P2;Temp;Humidity;BMP_temperature;BMP_pressure;BME280_temperature;BME280_humidity;BME280_pressure;Samples;Min_cycle;Max_cycle;Signal;HPM_P1;HPM_P2
2023/10/09 00:02:16;;;;;;;8.53;3.63;;;;;;;;;;6155972;23;20636;-89
2023/10/09 00:04:45;;;;;;;8.83;3.63;;;;;;;;;;6158956;23;20201;-88
2023/10/09 00:07:12;;;;;;;8.97;3.80;;;;;;;;;;6159389;23;20549;-88
2023/10/09 00:09:47;;;;;;;6.23;4.03;;;;;;;;;;6159798;23;20197;-88
2023/10/09 00:12:16;;;;;;;7.00;4.00;;;;;;;;;;6160373;23;20649;-88
2023/10/09 00:14:48;;;;;;;7.63;4.17;;;;;;;;;;6155881;23;20193;-87
2023/10/09 00:17:22;;;;;;;6.63;4.17;;;;;;;;;;6155791;23;20165;-89
2023/10/09 00:19:51;;;;;;;7.60;3.90;;;;;;;;;;6155680;23;20532;-88
2023/10/09 00:22:28;;;;;;;7.23;4.33;;;;;;;;;;6155846;23;20168;-88
2023/10/09 00:27:52;;;;;;;9.87;4.30;;;;;;;;;;5090399;27;20552;-88
2023/10/09 00:30:20;;;;;;;6.83;4.20;;;;;;;;;;5090623;28;20658;-89
2023/10/09 00:32:59;;;;;;;6.80;3.83;;;;;;;;;;5091163;28;20263;-88
2023/10/09 00:35:46;;;;;;;6.43;3.80;;;;;;;;;;5090591;28;20279;-89
2023/10/09 00:38:23;;;;;;;7.73;3.97;;;;;;;;;;5090973;28;20202;-89
2023/10/09 00:41:02;;;;;;;8.73;4.80;;;;;;;;;;5090519;28;20310;-89
2023/10/09 00:43:32;;;;;;;8.07;3.93;;;;;;;;;;5090896;28;20201;-89
2023/10/09 00:46:03;;;;;;;6.10;4.10;;;;;;;;;;5091069;28;20229;-89
2023/10/09 00:48:36;;;;;;;6.97;3.97;;;;;;;;;;5090973;28;20198;-90
2023/10/09 00:51:16;;;;;;;8.67;4.40;;;;;;;;;;5090662;28;20208;-89
2023/10/09 00:53:44;;;;;;;7.73;5.20;;;;;;;;;;5090876;28;20206;-89
2023/10/09 00:56:16;;;;;;;9.93;5.10;;;;;;;;;;5090043;28;20206;-90
2023/10/09 00:58:48;;;;;;;6.47;4.73;;;;;;;;;;5090470;28;20290;-89
2023/10/09 01:01:16;;;;;;;8.13;4.83;;;;;;;;;;5090635;28;20264;-90
2023/10/09 01:03:45;;;;;;;7.63;5.00;;;;;;;;;;5090341;28;20198;-89
2023/10/09 01:06:20;;;;;;;8.87;4.37;;;;;;;;;;5090065;28;20218;-90
2023/10/09 01:08:56;;;;;;;7.50;4.07;;;;;;;;;;5089915;28;20651;-90
2023/10/09 01:11:29;;;;;;;6.87;4.03;;;;;;;;;;5090530;28;20206;-90
2023/10/09 01:14:11;;;;;;;6.37;4.20;;;;;;;;;;5090508;28;20217;-88
2023/10/09 01:16:44;;;;;;;10.83;4.33;;;;;;;;;;5090459;28;20638;-90
2023/10/09 01:19:19;;;;;;;9.20;3.93;;;;;;;;;;5090511;28;20278;-90
2023/10/09 01:21:47;;;;;;;7.83;4.13;;;;;;;;;;5090098;28;20209;-90
2023/10/09 01:24:16;;;;;;;6.80;4.30;;;;;;;;;;5089984;28;20202;-90
2023/10/09 01:26:46;;;;;;;9.43;3.90;;;;;;;;;;5089510;28;20230;-90
2023/10/09 01:29:18;;;;;;;6.83;4.47;;;;;;;;;;5090251;28;20203;-89
2023/10/09 01:31:54;;;;;;;7.70;4.20;;;;;;;;;;5089696;28;20238;-90
2023/10/09 01:34:24;;;;;;;5.10;3.47;;;;;;;;;;5089552;28;20297;-88
2023/10/09 01:36:55;;;;;;;7.03;4.40;;;;;;;;;;5089688;28;20613;-89
2023/10/09 01:39:30;;;;;;;10.43;4.73;;;;;;;;;;5075798;28;20211;-89
2023/10/09 01:42:09;;;;;;;9.23;4.43;;;;;;;;;;5076161;28;20269;-88
2023/10/09 01:44:42;;;;;;;5.93;4.07;;;;;;;;;;5075882;28;20198;-89
2023/10/09 01:47:14;;;;;;;10.53;4.33;;;;;;;;;;5075671;28;20237;-89
2023/10/09 01:49:43;;;;;;;7.20;3.67;;;;;;;;;;5076046;28;20202;-89
2023/10/09 01:52:15;;;;;;;7.93;3.73;;;;;;;;;;5075403;28;20237;-89
2023/10/09 01:54:47;;;;;;;8.07;3.73;;;;;;;;;;5075965;28;20250;-89
2023/10/09 01:57:15;;;;;;;5.40;3.87;;;;;;;;;;5075855;28;20295;-89
2023/10/09 01:59:47;;;;;;;7.30;3.67;;;;;;;;;;5076231;28;20261;-89
2023/10/09 02:02:25;;;;;;;8.60;3.73;;;;;;;;;;5075489;28;20286;-89
2023/10/09 02:04:52;;;;;;;5.40;3.63;;;;;;;;;;5075985;28;20199;-89
2023/10/09 02:07:27;;;;;;;5.60;3.87;;;;;;;;;;5074929;28;20223;-89
2023/10/09 02:09:56;;;;;;;7.20;3.93;;;;;;;;;;5075454;28;20199;-88
2023/10/09 02:12:23;;;;;;;9.90;4.03;;;;;;;;;;5075648;28;20608;-88
2023/10/09 02:14:53;;;;;;;5.17;3.93;;;;;;;;;;5075560;28;20199;-88
2023/10/09 02:17:24;;;;;;;7.43;4.27;;;;;;;;;;5076630;28;20205;-89
2023/10/09 02:19:52;;;;;;;7.53;4.23;;;;;;;;;;5076414;28;20210;-89
2023/10/09 02:22:19;;;;;;;4.90;3.87;;;;;;;;;;5076191;28;20218;-89
2023/10/09 02:24:58;;;;;;;7.30;4.30;;;;;;;;;;5076283;28;20206;-89
2023/10/09 02:27:53;;;;;;;6.07;4.07;;;;;;;;;;5075925;28;20266;-89
2023/10/09 02:30:26;;;;;;;8.00;4.70;;;;;;;;;;5076363;28;20226;-89
2023/10/09 02:33:06;;;;;;;8.77;4.37;;;;;;;;;;5075268;28;20194;-89
2023/10/09 02:35:37;;;;;;;8.17;4.27;;;;;;;;;;5074552;28;20255;-89
2023/10/09 02:38:07;;;;;;;7.03;4.43;;;;;;;;;;5075614;28;20230;-89
2023/10/09 02:41:04;;;;;;;7.77;4.50;;;;;;;;;;5074957;28;20203;-88
2023/10/09 02:43:25;;;;;;;6.60;4.30;;;;;;;;;;5074559;28;20292;-88
2023/10/09 02:45:52;;;;;;;7.27;4.90;;;;;;;;;;5074873;28;20237;-88
2023/10/09 02:48:25;;;;;;;7.53;4.90;;;;;;;;;;5074297;28;20284;-89
2023/10/09 02:50:54;;;;;;;7.00;4.57;;;;;;;;;;5072462;28;20204;-89
2023/10/09 02:53:29;;;;;;;7.07;4.43;;;;;;;;;;5054453;28;20215;-87
2023/10/09 02:56:12;;;;;;;4.67;3.40;;;;;;;;;;5054472;28;20234;-88
2023/10/09 02:58:42;;;;;;;4.83;3.03;;;;;;;;;;5054625;28;20199;-89
2023/10/09 03:01:13;;;;;;;4.37;3.03;;;;;;;;;;5054698;28;20283;-88
2023/10/09 03:03:45;;;;;;;4.80;3.07;;;;;;;;;;5054181;28;20293;-88
2023/10/09 03:06:12;;;;;;;5.23;3.50;;;;;;;;;;5053696;28;20231;-89
2023/10/09 03:08:40;;;;;;;4.70;3.13;;;;;;;;;;5054410;28;20203;-90
2023/10/09 03:11:13;;;;;;;5.40;3.53;;;;;;;;;;5054583;28;20656;-89
2023/10/09 03:13:44;;;;;;;5.83;3.23;;;;;;;;;;5054378;28;20213;-89
2023/10/09 03:16:19;;;;;;;5.57;3.70;;;;;;;;;;5054371;28;20201;-89
2023/10/09 03:18:47;;;;;;;5.23;3.30;;;;;;;;;;5054358;28;20209;-88
2023/10/09 03:21:17;;;;;;;7.23;3.50;;;;;;;;;;5053739;28;20289;-89
2023/10/09 03:23:44;;;;;;;6.13;3.33;;;;;;;;;;5054257;28;20244;-90
2023/10/09 03:26:12;;;;;;;7.33;4.13;;;;;;;;;;5054030;28;20299;-88
2023/10/09 03:28:39;;;;;;;8.30;4.30;;;;;;;;;;5053697;28;20225;-90
2023/10/09 03:31:10;;;;;;;6.43;3.90;;;;;;;;;;5053907;28;20224;-89
2023/10/09 03:33:38;;;;;;;7.03;4.30;;;;;;;;;;5054012;28;20202;-89
2023/10/09 03:36:09;;;;;;;5.63;3.90;;;;;;;;;;5054030;28;20245;-89
2023/10/09 03:38:36;;;;;;;6.47;4.07;;;;;;;;;;5053682;28;20204;-89
2023/10/09 03:41:06;;;;;;;6.33;4.13;;;;;;;;;;5053632;28;21326;-89
2023/10/09 03:43:38;;;;;;;7.60;3.60;;;;;;;;;;5053776;28;20203;-89
2023/10/09 03:46:15;;;;;;;6.10;3.87;;;;;;;;;;5053783;28;20196;-89
2023/10/09 03:48:43;;;;;;;7.03;3.87;;;;;;;;;;5053194;28;20235;-89
2023/10/09 03:51:12;;;;;;;7.53;3.67;;;;;;;;;;5053774;28;20560;-89
2023/10/09 03:53:40;;;;;;;7.90;4.23;;;;;;;;;;5053515;28;20231;-88
2023/10/09 03:56:11;;;;;;;6.47;4.03;;;;;;;;;;5053336;28;20210;-89
2023/10/09 03:58:39;;;;;;;6.00;3.47;;;;;;;;;;5054043;28;20554;-89
2023/10/09 04:01:22;;;;;;;6.60;3.70;;;;;;;;;;5053148;28;20211;-89
2023/10/09 04:03:49;;;;;;;6.70;3.30;;;;;;;;;;5053300;28;20646;-88
2023/10/09 04:06:18;;;;;;;6.97;3.80;;;;;;;;;;5053259;28;20249;-89
2023/10/09 04:08:48;;;;;;;6.87;3.60;;;;;;;;;;5053041;28;20306;-89
2023/10/09 04:11:22;;;;;;;4.00;3.20;;;;;;;;;;5052470;28;20206;-89
2023/10/09 04:13:52;;;;;;;6.67;3.07;;;;;;;;;;5053489;28;20288;-89
2023/10/09 04:16:51;;;;;;;6.63;3.50;;;;;;;;;;5053454;28;20207;-89
2023/10/09 04:19:21;;;;;;;4.90;3.10;;;;;;;;;;5067631;28;20199;-89
2023/10/09 04:21:48;;;;;;;4.73;3.50;;;;;;;;;;5073580;28;20233;-88
2023/10/09 04:24:24;;;;;;;7.60;3.63;;;;;;;;;;5073080;28;20556;-90
2023/10/09 04:26:58;;;;;;;7.00;3.97;;;;;;;;;;5073250;28;20232;-90
2023/10/09 04:29:37;;;;;;;7.67;4.17;;;;;;;;;;5073398;28;20225;-87
2023/10/09 04:32:15;;;;;;;5.63;3.90;;;;;;;;;;5073393;28;20207;-90
2023/10/09 04:34:48;;;;;;;6.83;3.50;;;;;;;;;;5073836;28;20289;-89
2023/10/09 04:37:24;;;;;;;8.57;3.83;;;;;;;;;;5073712;28;20207;-90
2023/10/09 04:40:01;;;;;;;6.07;4.07;;;;;;;;;;5074801;28;20238;-89
2023/10/09 04:42:37;;;;;;;7.43;4.17;;;;;;;;;;5077546;28;20192;-89
2023/10/09 04:48:08;;;;;;;6.77;3.47;;;;;;;;;;5037560;28;20229;-91
2023/10/09 04:51:20;;;;;;;7.37;3.70;;;;;;;;;;5037803;28;20232;-93
2023/10/09 04:53:43;;;;;;;7.57;3.70;;;;;;;;;;5037074;28;20688;-93
2023/10/09 04:56:15;;;;;;;7.20;4.20;;;;;;;;;;5036571;28;20665;-93
2023/10/09 04:58:43;;;;;;;6.17;3.73;;;;;;;;;;5032243;28;20267;-95
2023/10/09 05:01:15;;;;;;;7.83;3.60;;;;;;;;;;5032598;28;20224;-93
2023/10/09 05:03:44;;;;;;;7.23;4.10;;;;;;;;;;5032334;28;20210;-95
2023/10/09 05:09:07;;;;;;;5.50;3.90;;;;;;;;;;5032670;28;20243;-91
2023/10/09 05:11:52;;;;;;;6.53;4.00;;;;;;;;;;5032039;28;20284;-92
2023/10/09 05:14:26;;;;;;;7.43;4.00;;;;;;;;;;5034990;28;20193;-92
2023/10/09 05:17:01;;;;;;;5.37;3.77;;;;;;;;;;5035076;28;20219;-92
2023/10/09 05:19:54;;;;;;;7.17;3.93;;;;;;;;;;5035402;28;20210;-92
2023/10/09 05:22:29;;;;;;;5.80;3.93;;;;;;;;;;5059577;28;20253;-92
2023/10/09 05:24:58;;;;;;;6.30;3.90;;;;;;;;;;5077002;28;20285;-92
2023/10/09 05:30:24;;;;;;;8.07;4.80;;;;;;;;;;5076095;28;20221;-91
2023/10/09 05:32:54;;;;;;;10.80;4.77;;;;;;;;;;5076566;28;20196;-92
2023/10/09 05:35:39;;;;;;;5.30;3.73;;;;;;;;;;5075903;28;20617;-91
2023/10/09 05:38:14;;;;;;;6.60;3.77;;;;;;;;;;5064756;28;20666;-90
2023/10/09 05:40:43;;;;;;;4.90;3.17;;;;;;;;;;5074397;28;20292;-92
2023/10/09 05:45:44;;;;;;;4.87;3.10;;;;;;;;;;5076164;28;20227;-94
2023/10/09 05:46:08;;;;;;;5.80;3.73;;;;;;;;;;5065673;28;20273;-95
2023/10/09 05:48:54;;;;;;;7.20;3.17;;;;;;;;;;5131989;22;20222;-94
2023/10/09 05:51:43;;;;;;;7.40;3.40;;;;;;;;;;5037304;28;20223;-94
2023/10/09 05:54:23;;;;;;;5.17;3.53;;;;;;;;;;5030475;28;20284;-93
2023/10/09 06:05:05;;;;;;;5.33;3.93;;;;;;;;;;5015169;28;21023;-93
2023/10/09 06:08:04;;;;;;;6.57;4.40;;;;;;;;;;5028442;28;20676;-93
2023/10/09 06:10:39;;;;;;;6.93;4.40;;;;;;;;;;5028112;28;20214;-92
2023/10/09 06:13:06;;;;;;;6.40;4.40;;;;;;;;;;5028137;28;20201;-92
2023/10/09 06:18:33;;;;;;;6.10;4.10;;;;;;;;;;5017090;28;20296;-92
2023/10/09 06:21:08;;;;;;;8.37;4.30;;;;;;;;;;5033607;28;20286;-93
2023/10/09 06:24:09;;;;;;;9.60;4.10;;;;;;;;;;5032960;28;20579;-86
2023/10/09 06:26:36;;;;;;;5.07;3.50;;;;;;;;;;5013001;28;20204;-87
2023/10/09 06:31:58;;;;;;;5.97;3.93;;;;;;;;;;5051736;28;20196;-89
2023/10/09 06:34:32;;;;;;;10.10;4.10;;;;;;;;;;5063913;28;20207;-88
2023/10/09 06:37:06;;;;;;;7.50;4.47;;;;;;;;;;5074036;28;20195;-88
2023/10/09 06:45:13;;;;;;;8.87;4.80;;;;;;;;;;5050585;28;20201;-87
2023/10/09 06:47:41;;;;;;;10.33;4.43;;;;;;;;;;5054321;28;20580;-88
2023/10/09 06:50:55;;;;;;;6.90;4.47;;;;;;;;;;5053960;28;20233;-88
2023/10/09 06:53:19;;;;;;;8.33;4.47;;;;;;;;;;5054048;28;20203;-88
2023/10/09 06:55:51;;;;;;;12.73;5.33;;;;;;;;;;5070053;28;20735;-87
2023/10/09 06:58:23;;;;;;;11.47;4.67;;;;;;;;;;5073288;28;20203;-87
2023/10/09 07:01:19;;;;;;;8.40;5.30;;;;;;;;;;5072737;28;20291;-87
2023/10/09 07:03:52;;;;;;;7.33;4.27;;;;;;;;;;5073702;28;20583;-86
2023/10/09 07:06:24;;;;;;;8.13;4.60;;;;;;;;;;5073949;28;20210;-85
2023/10/09 07:09:15;;;;;;;10.10;4.70;;;;;;;;;;5073422;28;20230;-87
2023/10/09 07:12:09;;;;;;;5.67;4.07;;;;;;;;;;5066153;28;20734;-86
2023/10/09 07:17:44;;;;;;;6.53;3.20;;;;;;;;;;5072968;28;20203;-86
2023/10/09 07:20:14;;;;;;;5.83;3.93;;;;;;;;;;5052497;28;20636;-85
2023/10/09 07:22:52;;;;;;;4.63;3.30;;;;;;;;;;5052257;28;20196;-86
2023/10/09 07:25:40;;;;;;;6.57;3.60;;;;;;;;;;5067724;28;20211;-86
2023/10/09 07:28:28;;;;;;;7.17;4.10;;;;;;;;;;5072627;28;20637;-86
2023/10/09 07:30:57;;;;;;;8.60;4.13;;;;;;;;;;5064107;28;20206;-86
2023/10/09 07:33:50;;;;;;;6.60;4.28;;;;;;;;;;5055835;28;20784;-86
2023/10/09 07:36:14;;;;;;;4.90;3.60;;;;;;;;;;5063396;28;20203;-86
2023/10/09 07:38:44;;;;;;;6.78;3.47;;;;;;;;;;5072109;28;20344;-85
2023/10/09 07:43:58;;;;;;;6.82;3.75;;;;;;;;;;5069210;28;20252;-85
2023/10/09 07:46:29;;;;;;;6.85;3.60;;;;;;;;;;5069648;28;20302;-85
2023/10/09 07:48:57;;;;;;;6.15;3.92;;;;;;;;;;5066797;28;20246;-86
2023/10/09 07:51:30;;;;;;;6.28;4.40;;;;;;;;;;5071269;28;20309;-85
2023/10/09 07:54:06;;;;;;;4.93;3.92;;;;;;;;;;5071646;28;20702;-85
2023/10/09 07:56:38;;;;;;;5.68;4.00;;;;;;;;;;5069859;28;20290;-85
2023/10/09 07:59:10;;;;;;;7.30;3.85;;;;;;;;;;5067684;28;20207;-85
2023/10/09 08:01:38;;;;;;;5.43;3.63;;;;;;;;;;5062242;28;20910;-85
2023/10/09 08:04:10;;;;;;;4.65;3.63;;;;;;;;;;5057877;28;20237;-85
2023/10/09 08:06:43;;;;;;;5.97;3.70;;;;;;;;;;5070310;28;20207;-86
2023/10/09 08:09:28;;;;;;;6.20;3.63;;;;;;;;;;5064727;28;20249;-86
2023/10/09 08:12:13;;;;;;;4.43;3.67;;;;;;;;;;5056724;28;20218;-85
2023/10/09 08:14:43;;;;;;;6.80;4.10;;;;;;;;;;5070876;28;20203;-85
2023/10/09 08:17:15;;;;;;;5.85;4.20;;;;;;;;;;5067980;28;20203;-85
2023/10/09 08:19:54;;;;;;;6.97;4.07;;;;;;;;;;5067175;28;20291;-84
2023/10/09 08:22:42;;;;;;;6.50;4.13;;;;;;;;;;5059740;28;20298;-85
2023/10/09 08:25:25;;;;;;;5.57;4.00;;;;;;;;;;5070562;28;20241;-85
2023/10/09 08:27:57;;;;;;;7.13;4.28;;;;;;;;;;5055777;28;20230;-85
2023/10/09 08:30:48;;;;;;;7.78;4.50;;;;;;;;;;5068528;28;20199;-85
2023/10/09 08:36:04;;;;;;;6.75;4.05;;;;;;;;;;5070797;28;20198;-85
2023/10/09 08:38:34;;;;;;;5.47;4.25;;;;;;;;;;5070176;28;20248;-84
2023/10/09 08:41:17;;;;;;;5.07;4.22;;;;;;;;;;5065406;28;20214;-85
2023/10/09 08:43:55;;;;;;;4.88;4.03;;;;;;;;;;5063635;28;20211;-85
2023/10/09 08:46:26;;;;;;;6.63;4.45;;;;;;;;;;5067061;28;20613;-85
2023/10/09 08:48:55;;;;;;;7.18;4.25;;;;;;;;;;5070458;28;20225;-85
2023/10/09 08:51:22;;;;;;;6.85;4.53;;;;;;;;;;5074990;28;20199;-84
2023/10/09 08:53:49;;;;;;;6.07;3.92;;;;;;;;;;5069097;28;20642;-85
2023/10/09 08:56:22;;;;;;;5.55;4.15;;;;;;;;;;5073204;28;20225;-85
2023/10/09 08:58:51;;;;;;;5.75;4.20;;;;;;;;;;5074355;28;20195;-85
2023/10/09 09:01:21;;;;;;;5.78;4.55;;;;;;;;;;5074025;28;20238;-85
2023/10/09 09:03:51;;;;;;;7.22;4.70;;;;;;;;;;5072118;28;20196;-86
2023/10/09 09:06:20;;;;;;;6.40;4.50;;;;;;;;;;5063963;28;20199;-86
2023/10/09 09:08:47;;;;;;;6.65;4.60;;;;;;;;;;5073632;28;20311;-85
2023/10/09 09:11:16;;;;;;;5.75;4.60;;;;;;;;;;5073849;28;20675;-86
2023/10/09 09:13:48;;;;;;;6.28;4.47;;;;;;;;;;5074370;28;20199;-86
2023/10/09 09:16:20;;;;;;;5.57;3.83;;;;;;;;;;5068061;28;20200;-85
2023/10/09 09:19:00;;;;;;;6.13;3.95;;;;;;;;;;5068958;28;20238;-84
2023/10/09 09:21:28;;;;;;;8.15;4.60;;;;;;;;;;5073183;28;20278;-85
2023/10/09 09:23:57;;;;;;;6.53;4.30;;;;;;;;;;5071269;28;20257;-84
2023/10/09 09:26:37;;;;;;;7.70;4.57;;;;;;;;;;5071881;28;20196;-84
2023/10/09 09:29:05;;;;;;;7.13;4.38;;;;;;;;;;5066892;28;20300;-85
2023/10/09 09:31:37;;;;;;;5.45;4.28;;;;;;;;;;5073378;28;20697;-85
2023/10/09 09:34:13;;;;;;;5.85;4.75;;;;;;;;;;5073376;28;20290;-85
2023/10/09 09:36:54;;;;;;;5.88;4.43;;;;;;;;;;5073180;28;20240;-84
2023/10/09 09:39:27;;;;;;;5.93;4.35;;;;;;;;;;5057692;28;20195;-83
2023/10/09 09:41:57;;;;;;;6.05;4.53;;;;;;;;;;5069243;28;20234;-85
2023/10/09 09:44:30;;;;;;;7.85;4.15;;;;;;;;;;5067079;28;20207;-85
2023/10/09 09:46:59;;;;;;;4.95;3.92;;;;;;;;;;5072676;28;20264;-85
2023/10/09 09:49:31;;;;;;;6.13;4.15;;;;;;;;;;5073069;28;20227;-85
2023/10/09 09:51:59;;;;;;;8.27;4.05;;;;;;;;;;5072165;28;20203;-84
2023/10/09 09:54:27;;;;;;;6.32;3.80;;;;;;;;;;5069221;28;20293;-85
2023/10/09 09:56:55;;;;;;;6.75;4.20;;;;;;;;;;5070941;28;20203;-85
2023/10/09 09:59:27;;;;;;;6.60;4.20;;;;;;;;;;5072748;28;20245;-84
2023/10/09 10:01:57;;;;;;;5.82;4.10;;;;;;;;;;5072986;28;20202;-85
2023/10/09 10:04:28;;;;;;;7.35;4.30;;;;;;;;;;5073048;28;20195;-85
2023/10/09 10:07:03;;;;;;;4.72;3.67;;;;;;;;;;5060764;28;20265;-85
2023/10/09 10:09:38;;;;;;;5.00;3.70;;;;;;;;;;5073218;28;20643;-88
2023/10/09 10:12:09;;;;;;;6.10;3.70;;;;;;;;;;5073769;28;20194;-88
2023/10/09 10:14:52;;;;;;;6.20;3.85;;;;;;;;;;5073856;28;20651;-87
2023/10/09 10:17:21;;;;;;;6.05;4.15;;;;;;;;;;5060727;28;20286;-87
2023/10/09 10:20:14;;;;;;;5.38;4.20;;;;;;;;;;5072254;28;20314;-86
2023/10/09 10:22:47;;;;;;;5.40;3.97;;;;;;;;;;5073512;28;20191;-87
2023/10/09 10:25:35;;;;;;;5.88;4.22;;;;;;;;;;5077666;28;20683;-88
2023/10/09 10:28:22;;;;;;;5.72;3.80;;;;;;;;;;5072788;28;20240;-88
2023/10/09 10:30:55;;;;;;;6.85;4.57;;;;;;;;;;5073024;28;20195;-88
2023/10/09 10:33:24;;;;;;;5.93;4.25;;;;;;;;;;5073656;28;20226;-88
2023/10/09 10:35:55;;;;;;;6.72;4.30;;;;;;;;;;5072642;28;20202;-88
2023/10/09 10:38:32;;;;;;;8.40;5.18;;;;;;;;;;5072740;28;20223;-86
2023/10/09 10:41:12;;;;;;;8.13;4.53;;;;;;;;;;5072537;28;20195;-89
2023/10/09 10:46:51;;;;;;;5.18;4.38;;;;;;;;;;5063137;28;20195;-88
2023/10/09 10:49:36;;;;;;;5.35;4.18;;;;;;;;;;5065419;28;20239;-87
2023/10/09 10:52:16;;;;;;;10.13;5.25;;;;;;;;;;5072166;28;20681;-87
2023/10/09 10:55:05;;;;;;;9.52;5.43;;;;;;;;;;5075542;28;20259;-86
2023/10/09 10:57:55;;;;;;;7.78;4.82;;;;;;;;;;5070147;28;20670;-84
2023/10/09 11:03:35;;;;;;;8.07;4.53;;;;;;;;;;5048684;28;20204;-86
2023/10/09 11:06:13;;;;;;;10.02;4.53;;;;;;;;;;5050211;28;20218;-85
2023/10/09 11:08:54;;;;;;;7.55;4.90;;;;;;;;;;5050748;28;20270;-85
2023/10/09 11:11:23;;;;;;;8.77;5.22;;;;;;;;;;5048373;28;20192;-86
2023/10/09 11:13:57;;;;;;;7.20;5.50;;;;;;;;;;5050793;28;20198;-86
2023/10/09 11:16:41;;;;;;;7.70;4.90;;;;;;;;;;5049840;28;20268;-85
2023/10/09 11:19:22;;;;;;;7.28;4.60;;;;;;;;;;5049489;28;20214;-85
2023/10/09 11:21:57;;;;;;;9.95;5.32;;;;;;;;;;5049399;28;20202;-84
2023/10/09 11:24:24;;;;;;;9.15;4.50;;;;;;;;;;5048904;28;20233;-85
2023/10/09 11:26:56;;;;;;;8.50;4.32;;;;;;;;;;5049361;28;20207;-85
2023/10/09 11:29:52;;;;;;;5.50;4.10;;;;;;;;;;5049841;28;20330;-85
2023/10/09 11:32:22;;;;;;;6.78;3.75;;;;;;;;;;5049132;28;20253;-85
2023/10/09 11:34:51;;;;;;;8.18;4.20;;;;;;;;;;5051406;28;20729;-84
2023/10/09 11:37:38;;;;;;;7.97;4.32;;;;;;;;;;5051845;28;20298;-85
2023/10/09 11:40:21;;;;;;;5.68;4.07;;;;;;;;;;5051763;28;20207;-85
2023/10/09 11:42:50;;;;;;;7.05;4.05;;;;;;;;;;5052073;28;20200;-85
2023/10/09 11:45:25;;;;;;;7.57;3.80;;;;;;;;;;5051762;28;20203;-86
2023/10/09 11:47:56;;;;;;;6.30;3.83;;;;;;;;;;5051583;28;20199;-85
2023/10/09 11:50:42;;;;;;;5.40;3.97;;;;;;;;;;5057617;28;20247;-84
2023/10/09 11:53:09;;;;;;;7.45;4.13;;;;;;;;;;5071812;28;20205;-85
2023/10/09 11:55:37;;;;;;;6.35;4.50;;;;;;;;;;5071092;28;20206;-85
2023/10/09 11:58:06;;;;;;;6.75;4.20;;;;;;;;;;5071592;28;20667;-85
2023/10/09 12:00:45;;;;;;;7.70;3.65;;;;;;;;;;5071510;28;20207;-85
2023/10/09 12:03:13;;;;;;;6.22;4.20;;;;;;;;;;5070764;28;20256;-84
2023/10/09 12:05:44;;;;;;;6.10;4.10;;;;;;;;;;5071586;28;20655;-85
2023/10/09 12:08:14;;;;;;;4.70;4.00;;;;;;;;;;5071811;28;20203;-85
2023/10/09 12:10:41;;;;;;;7.75;4.20;;;;;;;;;;5070928;28;20276;-86
2023/10/09 12:13:09;;;;;;;5.85;4.28;;;;;;;;;;5071539;28;20228;-83
2023/10/09 12:15:40;;;;;;;10.60;3.90;;;;;;;;;;5071634;28;20191;-85
2023/10/09 12:18:14;;;;;;;5.40;4.32;;;;;;;;;;5072010;28;20199;-84
2023/10/09 12:20:41;;;;;;;5.40;4.10;;;;;;;;;;5071453;28;20241;-85
2023/10/09 12:23:14;;;;;;;7.05;4.07;;;;;;;;;;5071046;28;20279;-85
2023/10/09 12:25:44;;;;;;;5.97;4.22;;;;;;;;;;5071201;28;20199;-85
2023/10/09 12:28:13;;;;;;;6.22;4.15;;;;;;;;;;5070415;28;20741;-84
2023/10/09 12:30:41;;;;;;;7.40;4.13;;;;;;;;;;5070373;28;20280;-84
2023/10/09 12:33:08;;;;;;;5.90;3.97;;;;;;;;;;5071345;28;20209;-85
2023/10/09 12:35:39;;;;;;;8.40;4.72;;;;;;;;;;5070915;28;20595;-85
2023/10/09 12:38:08;;;;;;;7.38;4.05;;;;;;;;;;5071073;28;20207;-84
2023/10/09 12:40:36;;;;;;;5.18;4.13;;;;;;;;;;5070978;28;20595;-85
2023/10/09 12:43:03;;;;;;;4.78;3.75;;;;;;;;;;5071043;28;20632;-83
2023/10/09 12:45:35;;;;;;;7.07;4.43;;;;;;;;;;5070476;28;20248;-84
2023/10/09 12:48:08;;;;;;;8.05;4.43;;;;;;;;;;5071087;28;20206;-85
2023/10/09 12:50:41;;;;;;;5.53;4.10;;;;;;;;;;5071113;28;20735;-85
2023/10/09 12:53:09;;;;;;;5.75;3.85;;;;;;;;;;5070925;28;20202;-85
2023/10/09 12:55:40;;;;;;;7.93;3.92;;;;;;;;;;5070549;28;20198;-83
2023/10/09 12:58:07;;;;;;;5.50;3.92;;;;;;;;;;5070867;28;20210;-84
2023/10/09 13:00:39;;;;;;;7.47;4.20;;;;;;;;;;5070189;28;20191;-84
2023/10/09 13:03:16;;;;;;;6.90;4.40;;;;;;;;;;5055755;28;20256;-85
2023/10/09 13:05:51;;;;;;;5.70;4.30;;;;;;;;;;5070516;28;20285;-84
2023/10/09 13:08:21;;;;;;;11.30;4.60;;;;;;;;;;5063149;28;20290;-86
2023/10/09 13:10:58;;;;;;;6.68;4.35;;;;;;;;;;5052236;28;20223;-92
2023/10/09 13:13:26;;;;;;;7.95;4.90;;;;;;;;;;5050643;28;20601;-83
2023/10/09 13:15:55;;;;;;;6.60;4.57;;;;;;;;;;5050436;28;20212;-82
2023/10/09 13:18:22;;;;;;;8.02;4.43;;;;;;;;;;5057755;28;20226;-82
2023/10/09 13:20:50;;;;;;;7.65;4.75;;;;;;;;;;5070660;28;20195;-82
2023/10/09 13:23:17;;;;;;;5.85;4.35;;;;;;;;;;5070323;28;20748;-83
2023/10/09 13:25:44;;;;;;;6.15;4.47;;;;;;;;;;5070142;28;20226;-82
2023/10/09 13:28:11;;;;;;;7.57;4.70;;;;;;;;;;5070071;28;20194;-83
2023/10/09 13:30:49;;;;;;;7.15;4.72;;;;;;;;;;5069939;28;20651;-83
2023/10/09 13:33:21;;;;;;;7.60;4.80;;;;;;;;;;5070649;28;20205;-83
2023/10/09 13:35:50;;;;;;;8.20;4.60;;;;;;;;;;5073756;28;20202;-82
2023/10/09 13:38:17;;;;;;;8.93;5.22;;;;;;;;;;5073901;28;20215;-82
2023/10/09 13:40:45;;;;;;;6.00;4.53;;;;;;;;;;5073969;28;20199;-80
2023/10/09 13:43:16;;;;;;;9.38;4.97;;;;;;;;;;5073567;28;20222;-82
2023/10/09 13:45:49;;;;;;;8.45;4.43;;;;;;;;;;5073704;28;20248;-82
2023/10/09 13:48:20;;;;;;;9.98;5.05;;;;;;;;;;5073464;28;20205;-82
2023/10/09 13:50:48;;;;;;;9.75;4.97;;;;;;;;;;5073253;28;20293;-82
2023/10/09 13:53:15;;;;;;;7.88;4.65;;;;;;;;;;5073984;28;20691;-82
2023/10/09 13:55:44;;;;;;;7.97;4.72;;;;;;;;;;5072945;28;20210;-82
2023/10/09 13:58:13;;;;;;;7.72;4.93;;;;;;;;;;5072863;28;20199;-81
2023/10/09 14:00:43;;;;;;;8.63;5.15;;;;;;;;;;5073238;28;20649;-82
2023/10/09 14:03:13;;;;;;;10.30;4.97;;;;;;;;;;5073847;28;20294;-82
2023/10/09 14:05:54;;;;;;;10.27;5.25;;;;;;;;;;5073180;28;20195;-81
2023/10/09 14:08:26;;;;;;;12.85;4.90;;;;;;;;;;5073179;28;20332;-82
2023/10/09 14:10:54;;;;;;;11.55;4.88;;;;;;;;;;5072703;28;20226;-81
2023/10/09 14:13:27;;;;;;;8.07;5.10;;;;;;;;;;5062871;28;20204;-82
2023/10/09 14:15:55;;;;;;;11.27;5.20;;;;;;;;;;5053229;28;20206;-82
2023/10/09 14:18:23;;;;;;;10.93;5.65;;;;;;;;;;5060342;28;20199;-82
2023/10/09 14:20:56;;;;;;;9.27;5.72;;;;;;;;;;5073063;28;20294;-82
2023/10/09 14:23:24;;;;;;;8.85;5.32;;;;;;;;;;5073102;28;20253;-82
2023/10/09 14:25:56;;;;;;;17.88;5.20;;;;;;;;;;5072952;28;20226;-81
2023/10/09 14:28:28;;;;;;;9.32;5.20;;;;;;;;;;5072392;28;20241;-82
2023/10/09 14:30:59;;;;;;;8.52;4.85;;;;;;;;;;5073322;28;20195;-82
2023/10/09 14:33:27;;;;;;;12.45;5.40;;;;;;;;;;5071269;28;20585;-82
2023/10/09 14:35:58;;;;;;;10.25;5.30;;;;;;;;;;5071693;28;20620;-82
2023/10/09 14:38:31;;;;;;;9.70;5.10;;;;;;;;;;5072164;28;20195;-82
2023/10/09 14:40:59;;;;;;;8.10;5.05;;;;;;;;;;5071698;28;20241;-81
2023/10/09 14:43:29;;;;;;;11.38;5.22;;;;;;;;;;5072585;28;20218;-82
2023/10/09 14:45:57;;;;;;;9.10;5.50;;;;;;;;;;5072564;28;20230;-82
2023/10/09 14:48:26;;;;;;;12.48;5.88;;;;;;;;;;5070877;28;20210;-80
2023/10/09 14:50:54;;;;;;;9.57;6.28;;;;;;;;;;5071691;28;20234;-82
2023/10/09 14:53:26;;;;;;;13.32;5.68;;;;;;;;;;5072081;28;20614;-81
2023/10/09 14:55:57;;;;;;;7.07;5.30;;;;;;;;;;5072062;28;20191;-82
2023/10/09 14:58:25;;;;;;;10.32;5.07;;;;;;;;;;5071717;28;20734;-82
2023/10/09 15:00:53;;;;;;;9.52;4.50;;;;;;;;;;5072215;28;20226;-82
2023/10/09 15:03:21;;;;;;;8.32;4.75;;;;;;;;;;5065866;28;20760;-82
2023/10/09 15:05:49;;;;;;;9.77;4.70;;;;;;;;;;5052119;28;20578;-82
2023/10/09 15:08:17;;;;;;;5.63;4.45;;;;;;;;;;5060089;28;20229;-80
2023/10/09 15:10:51;;;;;;;8.23;5.13;;;;;;;;;;5071788;28;20191;-80
2023/10/09 15:13:18;;;;;;;12.25;4.97;;;;;;;;;;5071831;28;20676;-81
2023/10/09 15:15:50;;;;;;;8.32;4.68;;;;;;;;;;5054442;28;20286;-82
2023/10/09 15:18:19;;;;;;;10.70;5.00;;;;;;;;;;5063944;28;20282;-81
2023/10/09 15:20:48;;;;;;;8.63;5.10;;;;;;;;;;5070725;28;20288;-81
2023/10/09 15:23:15;;;;;;;8.82;5.00;;;;;;;;;;5071386;28;20199;-81
2023/10/09 15:25:45;;;;;;;13.75;5.32;;;;;;;;;;5070817;28;20199;-80
2023/10/09 15:28:15;;;;;;;7.28;4.70;;;;;;;;;;5064657;28;20203;-80
2023/10/09 15:30:42;;;;;;;13.45;5.53;;;;;;;;;;5071613;28;20203;-80
2023/10/09 15:33:10;;;;;;;10.82;4.93;;;;;;;;;;5071553;28;20234;-81
2023/10/09 15:35:40;;;;;;;12.70;5.22;;;;;;;;;;5070638;28;20206;-81
2023/10/09 15:38:07;;;;;;;12.32;4.78;;;;;;;;;;5070225;28;20198;-81
2023/10/09 15:40:35;;;;;;;11.90;5.45;;;;;;;;;;5066167;28;20299;-81
2023/10/09 15:43:04;;;;;;;8.95;5.75;;;;;;;;;;5058703;28;20207;-82
2023/10/09 15:45:33;;;;;;;11.15;6.40;;;;;;;;;;5056422;28;20741;-81
2023/10/09 15:48:04;;;;;;;8.77;5.57;;;;;;;;;;5068403;28;20256;-82
2023/10/09 15:50:34;;;;;;;8.32;5.15;;;;;;;;;;5069014;28;20227;-83
2023/10/09 15:53:02;;;;;;;10.10;5.13;;;;;;;;;;5060859;28;20200;-82
2023/10/09 15:55:29;;;;;;;10.35;4.70;;;;;;;;;;5070700;28;20214;-83
2023/10/09 15:57:58;;;;;;;7.55;5.18;;;;;;;;;;5070596;28;20195;-83
2023/10/09 16:00:28;;;;;;;9.57;5.40;;;;;;;;;;5068014;28;20218;-81
2023/10/09 16:02:56;;;;;;;9.38;4.93;;;;;;;;;;5070853;28;20264;-82